Time;durP1;ratioP1;P1;durP2;ratioP2;P2;SDS_P1;SDS_P2;PMS_P1;PMS_P2;Temp;Humidity;BMP_temperature;BMP_pressure;BME280_temperature;BME280_humidity;BME280_pressure;Samples;Min_cycle;Max_cycle;Signal;HPM_P1;HPM_P2
2021/10/10 00:02:22;;;;;;;3.50;1.80;;;;;;;-140.05;100.00;61859.38;5008740;28;20444;-63
2021/10/10 00:04:49;;;;;;;2.33;1.60;;;;;;;-140.05;100.00;61859.38;5009135;28;21050;-66
2021/10/10 00:07:16;;;;;;;2.83;2.00;;;;;;;-140.05;100.00;61859.38;5009562;28;20537;-66
2021/10/10 00:09:43;;;;;;;2.40;1.87;;;;;;;-140.05;100.00;61859.38;5013506;28;20431;-66
2021/10/10 00:12:10;;;;;;;3.70;1.87;;;;;;;-140.05;100.00;61859.38;5017490;28;20452;-63
2021/10/10 00:14:37;;;;;;;2.43;1.53;;;;;;;-140.05;100.00;61859.38;5002097;28;20448;-65
2021/10/10 00:17:04;;;;;;;2.70;1.70;;;;;;;-140.05;100.00;61859.38;4999427;28;20491;-65
2021/10/10 00:19:31;;;;;;;2.10;1.77;;;;;;;-140.05;100.00;61859.38;5002619;28;21351;-65
2021/10/10 00:21:58;;;;;;;2.00;1.70;;;;;;;-140.05;100.00;61859.38;5024464;28;20450;-66
2021/10/10 00:24:24;;;;;;;2.20;2.00;;;;;;;-140.05;100.00;61859.38;5024697;28;20575;-63
2021/10/10 00:26:51;;;;;;;2.27;1.57;;;;;;;-140.05;100.00;61859.38;5018955;28;20439;-64
2021/10/10 00:29:18;;;;;;;2.53;1.90;;;;;;;-140.05;100.00;61859.38;5017417;28;20440;-63
2021/10/10 00:31:45;;;;;;;2.70;1.97;;;;;;;-140.05;100.00;61859.38;5012252;28;20570;-65
2021/10/10 00:34:13;;;;;;;3.10;1.97;;;;;;;-140.05;100.00;61859.38;5012456;28;20502;-64
2021/10/10 00:36:39;;;;;;;2.50;1.50;;;;;;;-140.05;100.00;61859.38;5011949;28;20472;-63
2021/10/10 00:39:06;;;;;;;2.17;1.60;;;;;;;-140.05;100.00;61859.38;5012096;28;20441;-66
2021/10/10 00:41:36;;;;;;;3.87;1.80;;;;;;;-140.05;100.00;61859.38;5011807;28;20536;-68
2021/10/10 00:44:11;;;;;;;2.17;1.70;;;;;;;-140.05;100.00;61859.38;5011769;28;20476;-65
2021/10/10 00:46:39;;;;;;;2.00;1.53;;;;;;;-140.05;100.00;61859.38;5013329;28;20450;-65
2021/10/10 00:49:07;;;;;;;2.00;1.70;;;;;;;-140.05;100.00;61859.38;5006786;28;21215;-66
2021/10/10 00:51:37;;;;;;;3.53;1.60;;;;;;;-140.05;100.00;61859.38;5004696;28;20435;-66
2021/10/10 00:54:05;;;;;;;2.37;1.70;;;;;;;-140.05;100.00;61859.38;5007736;28;20444;-65
2021/10/10 00:56:36;;;;;;;3.33;2.10;;;;;;;-140.05;100.00;61859.38;5010060;28;20477;-67
2021/10/10 00:59:04;;;;;;;2.53;2.03;;;;;;;-140.05;100.00;61859.38;5011993;28;20487;-65
2021/10/10 01:01:32;;;;;;;3.57;1.90;;;;;;;-140.05;100.00;61859.38;5011823;28;20493;-65
2021/10/10 01:03:59;;;;;;;3.10;1.97;;;;;;;-140.05;100.00;61859.38;4998047;28;20469;-65
2021/10/10 01:06:27;;;;;;;1.93;1.70;;;;;;;-140.05;100.00;61859.38;5007588;28;20454;-65
2021/10/10 01:08:54;;;;;;;1.87;1.57;;;;;;;-140.05;100.00;61859.38;5011335;28;20450;-67
2021/10/10 01:11:22;;;;;;;2.43;1.80;;;;;;;-140.05;100.00;61859.38;4999186;28;20460;-63
2021/10/10 01:13:49;;;;;;;1.97;1.60;;;;;;;-140.05;100.00;61859.38;5014232;28;20444;-64
2021/10/10 01:16:16;;;;;;;1.97;1.60;;;;;;;-140.05;100.00;61859.38;5012450;28;20495;-66
2021/10/10 01:18:43;;;;;;;2.13;1.53;;;;;;;-140.05;100.00;61859.38;5010923;28;20794;-65
2021/10/10 01:21:10;;;;;;;2.07;1.50;;;;;;;-140.05;100.00;61859.38;5008739;28;20447;-64
2021/10/10 01:23:37;;;;;;;2.60;1.30;;;;;;;-140.05;100.00;61859.38;5020065;28;20489;-66
2021/10/10 01:26:04;;;;;;;1.40;1.30;;;;;;;-140.05;100.00;61859.38;5014078;28;20443;-66
2021/10/10 01:28:31;;;;;;;1.77;1.10;;;;;;;-140.05;100.00;61859.38;5001357;28;21405;-64
2021/10/10 01:30:58;;;;;;;25.47;22.37;;;;;;;-140.05;100.00;61859.38;5000993;28;20467;-67
2021/10/10 01:33:25;;;;;;;13.33;10.13;;;;;;;-140.05;100.00;61859.38;5009696;28;20901;-68
2021/10/10 01:35:52;;;;;;;2.57;2.37;;;;;;;-140.05;100.00;61859.38;5011246;28;20476;-68
2021/10/10 01:38:19;;;;;;;2.27;1.53;;;;;;;-140.05;100.00;61859.38;5011146;28;20444;-68
2021/10/10 01:40:47;;;;;;;1.80;1.60;;;;;;;-140.05;100.00;61859.38;5011127;28;20448;-66
2021/10/10 01:43:14;;;;;;;2.17;1.70;;;;;;;-140.05;100.00;61859.38;5010775;28;20857;-68
2021/10/10 01:45:41;;;;;;;2.93;1.40;;;;;;;-140.05;100.00;61859.38;5010989;28;20440;-64
2021/10/10 01:48:10;;;;;;;1.73;1.63;;;;;;;-140.05;100.00;61859.38;5011491;28;20444;-67
2021/10/10 01:50:38;;;;;;;2.30;1.60;;;;;;;-140.05;100.00;61859.38;5005746;28;20441;-67
2021/10/10 01:53:05;;;;;;;1.40;1.30;;;;;;;-140.05;100.00;61859.38;5002632;28;20449;-70
2021/10/10 01:55:33;;;;;;;2.43;1.40;;;;;;;-140.05;100.00;61859.38;5023348;28;20471;-66
2021/10/10 01:57:59;;;;;;;3.27;1.57;;;;;;;-140.05;100.00;61859.38;5009821;28;20468;-66
2021/10/10 02:00:26;;;;;;;2.00;1.70;;;;;;;-140.05;100.00;61859.38;5009664;28;20526;-67
2021/10/10 02:02:54;;;;;;;1.40;1.30;;;;;;;-140.05;100.00;61859.38;5008073;28;20455;-67
2021/10/10 02:05:22;;;;;;;2.17;1.40;;;;;;;-140.05;100.00;61859.38;4996681;28;20570;-68
2021/10/10 02:07:49;;;;;;;1.63;1.30;;;;;;;-140.05;100.00;61859.38;4996985;28;20456;-65
2021/10/10 02:10:15;;;;;;;2.07;1.50;;;;;;;-140.05;100.00;61859.38;5008508;28;20444;-66
2021/10/10 02:12:42;;;;;;;1.60;1.50;;;;;;;-140.05;100.00;61859.38;5020892;28;21228;-66
2021/10/10 02:15:11;;;;;;;1.93;1.10;;;;;;;-140.05;100.00;61859.38;5009238;28;21758;-65
2021/10/10 02:17:38;;;;;;;1.73;1.50;;;;;;;-140.05;100.00;61859.38;4999541;28;20487;-65
2021/10/10 02:20:09;;;;;;;2.60;1.27;;;;;;;-140.05;100.00;61859.38;5009707;28;20510;-66
2021/10/10 02:22:36;;;;;;;2.17;1.60;;;;;;;-140.05;100.00;61859.38;5009372;28;21180;-66
2021/10/10 02:25:04;;;;;;;3.20;1.30;;;;;;;-140.05;100.00;61859.38;5007139;28;20451;-64
2021/10/10 02:27:31;;;;;;;1.50;1.00;;;;;;;-140.05;100.00;61859.38;5015357;28;20447;-65
2021/10/10 02:29:58;;;;;;;1.20;1.10;;;;;;;-140.05;100.00;61859.38;5007341;28;20449;-66
2021/10/10 02:32:25;;;;;;;1.53;1.30;;;;;;;-140.05;100.00;61859.38;4998092;28;20445;-66
2021/10/10 02:34:52;;;;;;;1.30;1.20;;;;;;;-140.05;100.00;61859.38;5007100;28;20452;-66
2021/10/10 02:37:19;;;;;;;1.90;1.13;;;;;;;-140.05;100.00;61859.38;5009667;28;20476;-68
2021/10/10 02:39:46;;;;;;;3.00;1.30;;;;;;;-140.05;100.00;61859.38;5009677;28;20437;-66
2021/10/10 02:42:13;;;;;;;2.03;1.07;;;;;;;-140.05;100.00;61859.38;5009594;28;20444;-65
2021/10/10 02:44:40;;;;;;;1.33;1.20;;;;;;;-140.05;100.00;61859.38;5007236;28;20456;-64
2021/10/10 02:47:06;;;;;;;2.73;1.03;;;;;;;-140.05;100.00;61859.38;5008487;28;20455;-66
2021/10/10 02:49:33;;;;;;;2.13;1.13;;;;;;;-140.05;100.00;61859.38;5006124;28;20458;-66
2021/10/10 02:52:00;;;;;;;1.90;1.30;;;;;;;-140.05;100.00;61859.38;5000867;28;20807;-65
2021/10/10 02:54:27;;;;;;;1.30;1.10;;;;;;;-140.05;100.00;61859.38;5010091;28;20952;-67
2021/10/10 02:56:54;;;;;;;2.37;1.10;;;;;;;-140.05;100.00;61859.38;5015681;28;20484;-67
2021/10/10 02:59:21;;;;;;;1.30;1.10;;;;;;;-140.05;100.00;61859.38;5009263;28;20464;-67
2021/10/10 03:01:48;;;;;;;1.20;1.10;;;;;;;-140.05;100.00;61859.38;4994244;28;20445;-69
2021/10/10 03:04:15;;;;;;;1.53;1.00;;;;;;;-140.05;100.00;61859.38;4990222;28;20873;-65
2021/10/10 03:06:42;;;;;;;2.17;1.20;;;;;;;-140.05;100.00;61859.38;5011205;28;20455;-66
2021/10/10 03:09:09;;;;;;;1.10;1.00;;;;;;;-140.05;100.00;61859.38;5010712;28;20456;-65
2021/10/10 03:11:36;;;;;;;3.73;1.00;;;;;;;-140.05;100.00;61859.38;5005706;28;20495;-66
2021/10/10 03:14:03;;;;;;;0.90;0.90;;;;;;;-140.05;100.00;61859.38;5006709;28;20447;-65
2021/10/10 03:16:31;;;;;;;1.43;1.10;;;;;;;-140.05;100.00;61859.38;5007718;28;20480;-67
2021/10/10 03:18:58;;;;;;;2.03;1.17;;;;;;;-140.05;100.00;61859.38;4998429;28;20449;-64
2021/10/10 03:21:25;;;;;;;1.60;1.17;;;;;;;-140.05;100.00;61859.38;5010880;28;21359;-66
2021/10/10 03:23:52;;;;;;;1.50;1.40;;;;;;;-140.05;100.00;61859.38;5011465;28;21191;-66
2021/10/10 03:26:19;;;;;;;1.70;1.60;;;;;;;-140.05;100.00;61859.38;5010476;28;20441;-66
2021/10/10 03:28:45;;;;;;;2.37;1.80;;;;;;;-140.05;100.00;61859.38;5009617;28;20844;-64
2021/10/10 03:31:13;;;;;;;1.30;1.00;;;;;;;-140.05;100.00;61859.38;5009355;28;20441;-64
2021/10/10 03:33:41;;;;;;;1.27;1.10;;;;;;;-140.05;100.00;61859.38;5014769;28;20527;-66
2021/10/10 03:36:09;;;;;;;2.90;1.00;;;;;;;-140.05;100.00;61859.38;5003413;28;20449;-67
2021/10/10 03:38:36;;;;;;;1.20;0.87;;;;;;;-140.05;100.00;61859.38;5013850;28;21326;-67
2021/10/10 03:41:04;;;;;;;1.70;1.13;;;;;;;-140.05;100.00;61859.38;5012529;28;20455;-66
2021/10/10 03:43:31;;;;;;;1.10;0.93;;;;;;;-140.05;100.00;61859.38;4996538;28;20441;-65
2021/10/10 03:45:58;;;;;;;2.60;1.27;;;;;;;-140.05;100.00;61859.38;5014368;28;20793;-68
2021/10/10 03:48:25;;;;;;;1.40;1.13;;;;;;;-140.05;100.00;61859.38;5008475;28;20982;-63
2021/10/10 03:50:52;;;;;;;1.50;1.20;;;;;;;-140.05;100.00;61859.38;5004846;28;20447;-66
2021/10/10 03:53:22;;;;;;;1.70;1.40;;;;;;;-140.05;100.00;61859.38;5002495;28;21331;-69
2021/10/10 03:55:52;;;;;;;2.43;2.03;;;;;;;-140.05;100.00;61859.38;5018704;28;20451;-65
2021/10/10 03:58:20;;;;;;;3.17;2.17;;;;;;;-140.05;100.00;61859.38;5013118;28;20499;-66
2021/10/10 04:00:48;;;;;;;2.00;1.70;;;;;;;-140.05;100.00;61859.38;5005793;28;20519;-65
2021/10/10 04:03:16;;;;;;;2.20;1.63;;;;;;;-140.05;100.00;61859.38;5006195;28;20487;-67
2021/10/10 04:05:45;;;;;;;1.90;1.70;;;;;;;-140.05;100.00;61859.38;5012481;28;20455;-65
2021/10/10 04:08:12;;;;;;;2.17;1.50;;;;;;;-140.05;100.00;61859.38;5008203;28;20555;-65
2021/10/10 04:10:39;;;;;;;2.13;1.70;;;;;;;-140.05;100.00;61859.38;5013132;28;20454;-66
2021/10/10 04:13:07;;;;;;;2.37;1.67;;;;;;;-140.05;100.00;61859.38;5011410;28;20451;-66
2021/10/10 04:15:35;;;;;;;4.00;1.70;;;;;;;-140.05;100.00;61859.38;5010909;28;20458;-65
2021/10/10 04:18:03;;;;;;;1.97;1.60;;;;;;;-140.05;100.00;61859.38;4988940;28;20578;-67
2021/10/10 04:20:30;;;;;;;2.67;1.70;;;;;;;-140.05;100.00;61859.38;5010877;28;20447;-67
2021/10/10 04:22:57;;;;;;;2.60;2.00;;;;;;;-140.05;100.00;61859.38;5006800;28;20445;-66
2021/10/10 04:25:24;;;;;;;2.10;1.70;;;;;;;-140.05;100.00;61859.38;5011082;28;20447;-68
2021/10/10 04:27:51;;;;;;;3.27;2.00;;;;;;;-140.05;100.00;61859.38;5010232;28;20452;-68
2021/10/10 04:30:19;;;;;;;2.53;1.73;;;;;;;-140.05;100.00;61859.38;5011369;28;20472;-66
2021/10/10 04:32:46;;;;;;;3.30;1.80;;;;;;;-140.05;100.00;61859.38;5011999;28;20444;-69
2021/10/10 04:35:13;;;;;;;1.77;1.50;;;;;;;-140.05;100.00;61859.38;5009228;28;20440;-64
2021/10/10 04:37:41;;;;;;;2.17;1.60;;;;;;;-140.05;100.00;61859.38;5013848;28;21236;-65
2021/10/10 04:40:08;;;;;;;1.80;1.40;;;;;;;-140.05;100.00;61859.38;4994523;28;20543;-66
2021/10/10 04:42:37;;;;;;;3.30;1.60;;;;;;;-140.05;100.00;61859.38;5014931;28;20974;-66
2021/10/10 04:45:05;;;;;;;2.50;1.50;;;;;;;-140.05;100.00;61859.38;5014403;28;20459;-67
2021/10/10 04:47:32;;;;;;;1.70;1.60;;;;;;;-140.05;100.00;61859.38;5011376;28;20440;-67
2021/10/10 04:49:59;;;;;;;1.47;1.30;;;;;;;-140.05;100.00;61859.38;5008630;28;20451;-68
2021/10/10 04:52:26;;;;;;;2.63;1.60;;;;;;;-140.05;100.00;61859.38;5011416;28;20452;-65
2021/10/10 04:54:53;;;;;;;3.00;1.70;;;;;;;-140.05;100.00;61859.38;5009416;28;20534;-67
2021/10/10 04:57:19;;;;;;;1.50;1.40;;;;;;;-140.05;100.00;61859.38;5004403;28;20488;-68
2021/10/10 04:59:50;;;;;;;2.40;1.47;;;;;;;-140.05;100.00;61859.38;5013007;28;20471;-66
2021/10/10 05:02:19;;;;;;;2.07;1.73;;;;;;;-140.05;100.00;61859.38;5003713;28;20457;-66
2021/10/10 05:04:49;;;;;;;2.53;1.57;;;;;;;-140.05;100.00;61859.38;5004206;28;20986;-67
2021/10/10 05:07:17;;;;;;;4.20;1.60;;;;;;;-140.05;100.00;61859.38;5001175;28;20456;-68
2021/10/10 05:09:44;;;;;;;2.93;1.70;;;;;;;-140.05;100.00;61859.38;5008240;28;20446;-67
2021/10/10 05:12:13;;;;;;;1.77;1.67;;;;;;;-140.05;100.00;61859.38;4997307;28;20449;-66
2021/10/10 05:14:40;;;;;;;2.30;1.53;;;;;;;-140.05;100.00;61859.38;4994413;28;20886;-64
2021/10/10 05:17:07;;;;;;;1.90;1.30;;;;;;;-140.05;100.00;61859.38;5002587;28;20520;-65
2021/10/10 05:19:34;;;;;;;1.30;1.20;;;;;;;-140.05;100.00;61859.38;4999980;28;20437;-67
2021/10/10 05:22:02;;;;;;;1.40;1.20;;;;;;;-140.05;100.00;61859.38;4993829;28;20452;-66
2021/10/10 05:24:29;;;;;;;3.07;1.60;;;;;;;-140.05;100.00;61859.38;4996203;28;20878;-66
2021/10/10 05:26:58;;;;;;;1.50;1.30;;;;;;;-140.05;100.00;61859.38;4992326;28;20445;-66
2021/10/10 05:29:25;;;;;;;1.70;1.20;;;;;;;-140.05;100.00;61859.38;5005524;28;20472;-66
2021/10/10 05:31:52;;;;;;;2.93;1.37;;;;;;;-140.05;100.00;61859.38;4994819;28;20556;-64
2021/10/10 05:34:19;;;;;;;4.50;1.60;;;;;;;-140.05;100.00;61859.38;4992618;28;20438;-66
2021/10/10 05:36:50;;;;;;;1.63;1.50;;;;;;;-140.05;100.00;61859.38;4993201;28;21448;-65
2021/10/10 05:39:17;;;;;;;2.50;1.57;;;;;;;-140.05;100.00;61859.38;4993203;28;21314;-65
2021/10/10 05:41:45;;;;;;;1.40;1.30;;;;;;;-140.05;100.00;61859.38;5002780;28;20805;-65
2021/10/10 05:44:12;;;;;;;3.00;1.50;;;;;;;-140.05;100.00;61859.38;5005085;28;20445;-65
2021/10/10 05:46:40;;;;;;;2.07;1.53;;;;;;;-140.05;100.00;61859.38;5009674;28;20441;-65
2021/10/10 05:49:07;;;;;;;1.50;1.40;;;;;;;-140.05;100.00;61859.38;5010873;28;20955;-64
2021/10/10 05:51:35;;;;;;;2.50;1.30;;;;;;;-140.05;100.00;61859.38;5008745;28;21010;-65
2021/10/10 05:54:04;;;;;;;1.27;1.17;;;;;;;-140.05;100.00;61859.38;5017157;28;20448;-66
2021/10/10 05:56:33;;;;;;;1.60;1.50;;;;;;;-140.05;100.00;61859.38;5009802;28;20511;-66
2021/10/10 05:59:07;;;;;;;1.43;1.33;;;;;;;-140.05;100.00;61859.38;5010832;28;20869;-66
2021/10/10 06:01:39;;;;;;;5.33;2.57;;;;;;;-140.05;100.00;61859.38;5010512;28;20444;-66
2021/10/10 06:04:07;;;;;;;2.90;1.60;;;;;;;-140.05;100.00;61859.38;4998005;28;20465;-66
2021/10/10 06:06:35;;;;;;;3.10;1.90;;;;;;;-140.05;100.00;61859.38;5007479;28;20440;-66
2021/10/10 06:09:04;;;;;;;3.53;1.97;;;;;;;-140.05;100.00;61859.38;5010988;28;20448;-68
2021/10/10 06:11:32;;;;;;;1.70;1.60;;;;;;;-140.05;100.00;61859.38;5018807;28;20443;-67
2021/10/10 06:13:59;;;;;;;2.40;2.00;;;;;;;-140.05;100.00;61859.38;5015619;28;20551;-67
2021/10/10 06:16:27;;;;;;;2.63;1.80;;;;;;;-140.05;100.00;61859.38;5009810;28;20445;-66
2021/10/10 06:18:54;;;;;;;3.83;2.53;;;;;;;-140.05;100.00;61859.38;5010623;28;21049;-67
2021/10/10 06:21:22;;;;;;;2.30;2.10;;;;;;;-140.05;100.00;61859.38;5010341;28;20447;-68
2021/10/10 06:23:49;;;;;;;3.23;1.97;;;;;;;-140.05;100.00;61859.38;5010634;28;20447;-67
2021/10/10 06:26:16;;;;;;;3.60;2.60;;;;;;;-140.05;100.00;61859.38;5012713;28;20449;-66
2021/10/10 06:28:43;;;;;;;3.40;2.10;;;;;;;-140.05;100.00;61859.38;5014883;28;20506;-69
2021/10/10 06:31:10;;;;;;;3.87;2.53;;;;;;;-140.05;100.00;61859.38;5011745;28;20441;-69
2021/10/10 06:33:37;;;;;;;3.60;2.60;;;;;;;-140.05;100.00;61859.38;5010409;28;20451;-66
2021/10/10 06:36:04;;;;;;;5.70;2.57;;;;;;;-140.05;100.00;61859.38;5009420;28;20452;-66
2021/10/10 06:38:31;;;;;;;2.80;2.30;;;;;;;-140.05;100.00;61859.38;5010383;28;20499;-67
2021/10/10 06:40:58;;;;;;;3.93;3.47;;;;;;;-140.05;100.00;61859.38;5009674;28;20445;-69
2021/10/10 06:43:25;;;;;;;5.07;4.30;;;;;;;-140.05;100.00;61859.38;5010008;28;20452;-68
2021/10/10 06:45:52;;;;;;;3.23;2.93;;;;;;;-140.05;100.00;61859.38;5009271;28;20796;-64
2021/10/10 06:48:19;;;;;;;4.63;3.07;;;;;;;-140.05;100.00;61859.38;5009986;28;20958;-67
2021/10/10 06:50:46;;;;;;;4.20;2.60;;;;;;;-140.05;100.00;61859.38;5019478;28;20459;-67
2021/10/10 06:53:13;;;;;;;5.53;3.17;;;;;;;-140.05;100.00;61859.38;5012511;28;20528;-66
2021/10/10 06:55:40;;;;;;;6.70;3.70;;;;;;;-140.05;100.00;61859.38;5009850;28;20512;-66
2021/10/10 06:58:07;;;;;;;7.20;3.57;;;;;;;-140.05;100.00;61859.38;5008808;28;20523;-69
2021/10/10 07:00:34;;;;;;;6.53;3.20;;;;;;;-140.05;100.00;61859.38;5010049;28;20958;-66
2021/10/10 07:03:01;;;;;;;5.53;2.90;;;;;;;-140.05;100.00;61859.38;5009552;28;20452;-66
2021/10/10 07:05:28;;;;;;;4.57;3.20;;;;;;;-140.05;100.00;61859.38;5009058;28;21014;-66
2021/10/10 07:07:55;;;;;;;6.57;3.57;;;;;;;-140.05;100.00;61859.38;5009420;28;20491;-68
2021/10/10 07:10:22;;;;;;;9.20;5.53;;;;;;;-140.05;100.00;61859.38;5010608;28;20791;-66
2021/10/10 07:12:49;;;;;;;10.70;7.73;;;;;;;-140.05;100.00;61859.38;5009417;28;20440;-67
2021/10/10 07:15:16;;;;;;;9.60;7.63;;;;;;;-140.05;100.00;61859.38;5010562;28;20555;-68
2021/10/10 07:17:43;;;;;;;9.10;6.83;;;;;;;-140.05;100.00;61859.38;5009546;28;20483;-67
2021/10/10 07:20:19;;;;;;;8.80;5.93;;;;;;;-140.05;100.00;61859.38;5011555;28;20443;-68
2021/10/10 07:22:59;;;;;;;9.77;5.47;;;;;;;-140.05;100.00;61859.38;5024277;28;20741;-67
2021/10/10 07:25:26;;;;;;;5.53;4.00;;;;;;;-140.05;100.00;61859.38;5009739;28;20452;-68
2021/10/10 07:27:53;;;;;;;4.00;2.70;;;;;;;-140.05;100.00;61859.38;5008976;28;20449;-67
2021/10/10 07:30:20;;;;;;;2.43;1.60;;;;;;;-140.05;100.00;61859.38;5009811;28;20949;-67
2021/10/10 07:32:48;;;;;;;2.47;1.70;;;;;;;-140.05;100.00;61859.38;5008285;28;20467;-68
2021/10/10 07:35:14;;;;;;;2.13;1.70;;;;;;;-140.05;100.00;61859.38;4992807;28;20445;-68
2021/10/10 07:37:41;;;;;;;2.37;1.77;;;;;;;-140.05;100.00;61859.38;5001769;28;20870;-67
2021/10/10 07:40:09;;;;;;;1.60;1.50;;;;;;;-140.05;100.00;61859.38;5005462;28;20437;-67
2021/10/10 07:42:36;;;;;;;1.73;1.57;;;;;;;-140.05;100.00;61859.38;4999437;28;20438;-66
2021/10/10 07:45:11;;;;;;;1.83;1.50;;;;;;;-140.05;100.00;61859.38;4993319;28;20440;-67
2021/10/10 07:50:16;;;;;;;1.60;1.50;;;;;;;-140.05;100.00;61859.38;4990667;28;21058;-67
2021/10/10 07:52:44;;;;;;;2.10;1.60;;;;;;;-140.05;100.00;61859.38;4988344;28;20437;-67
2021/10/10 07:55:11;;;;;;;2.67;2.20;;;;;;;-140.05;100.00;61859.38;4992133;28;21007;-65
2021/10/10 07:57:38;;;;;;;2.10;1.90;;;;;;;-140.05;100.00;61859.38;4992195;28;20497;-66
2021/10/10 08:00:08;;;;;;;2.50;1.73;;;;;;;-140.05;100.00;61859.38;4995587;28;20481;-67
2021/10/10 08:02:55;;;;;;;2.10;1.80;;;;;;;-140.05;100.00;61859.38;4987858;28;20448;-70
2021/10/10 08:05:26;;;;;;;2.00;1.80;;;;;;;-140.05;100.00;61859.38;4991350;28;20942;-68
2021/10/10 08:07:54;;;;;;;1.93;1.73;;;;;;;-140.05;100.00;61859.38;4995589;28;20471;-67
2021/10/10 08:10:23;;;;;;;58.70;48.63;;;;;;;-140.05;100.00;61859.38;4993825;28;20448;-70
2021/10/10 08:12:50;;;;;;;30.23;25.07;;;;;;;-140.05;100.00;61859.38;4996885;28;20448;-68
2021/10/10 08:15:18;;;;;;;31.60;25.37;;;;;;;-140.05;100.00;61859.38;4993608;28;20818;-69
2021/10/10 08:17:45;;;;;;;2.33;1.87;;;;;;;-140.05;100.00;61859.38;4990647;28;20511;-67
2021/10/10 08:20:12;;;;;;;3.03;1.90;;;;;;;-140.05;100.00;61859.38;4989767;28;20474;-68
2021/10/10 08:22:40;;;;;;;20.03;11.83;;;;;;;-140.05;100.00;61859.38;4992905;28;20438;-69
2021/10/10 08:25:11;;;;;;;92.07;63.90;;;;;;;-140.05;100.00;61859.38;4992871;28;20442;-68
2021/10/10 08:27:41;;;;;;;8.17;6.33;;;;;;;-140.05;100.00;61859.38;4990871;28;20445;-67
2021/10/10 08:30:11;;;;;;;2.90;2.10;;;;;;;-140.05;100.00;61859.38;4993499;28;20433;-69
2021/10/10 08:32:39;;;;;;;5.23;2.80;;;;;;;-140.05;100.00;61859.38;4996576;28;20550;-67
2021/10/10 08:35:07;;;;;;;3.63;2.27;;;;;;;-140.05;100.00;61859.38;4995515;28;21076;-69
2021/10/10 08:37:34;;;;;;;2.77;2.20;;;;;;;-140.05;100.00;61859.38;4993742;28;20567;-69
2021/10/10 08:40:06;;;;;;;3.20;2.27;;;;;;;-140.05;100.00;61859.38;4992193;28;20872;-68
2021/10/10 08:42:36;;;;;;;4.27;2.37;;;;;;;-140.05;100.00;61859.38;4996567;28;20441;-68
2021/10/10 08:47:41;;;;;;;3.20;2.70;;;;;;;-140.05;100.00;61859.38;4992513;28;20437;-65
2021/10/10 08:50:20;;;;;;;2.90;2.40;;;;;;;-140.05;100.00;61859.38;4992682;28;21033;-64
2021/10/10 08:52:52;;;;;;;3.70;2.67;;;;;;;-140.05;100.00;61859.38;4996517;28;20967;-65
2021/10/10 08:55:19;;;;;;;17.40;13.30;;;;;;;-140.05;100.00;61859.38;4991585;28;20442;-65
2021/10/10 08:57:46;;;;;;;2.93;2.50;;;;;;;-140.05;100.00;61859.38;4992434;28;20444;-65
2021/10/10 09:00:17;;;;;;;3.43;2.17;;;;;;;-140.05;100.00;61859.38;4994747;28;20448;-64
2021/10/10 09:02:48;;;;;;;3.27;2.47;;;;;;;-140.05;100.00;61859.38;4993650;28;20944;-63
2021/10/10 09:05:15;;;;;;;2.60;2.10;;;;;;;-140.05;100.00;61859.38;4995827;28;20453;-64
2021/10/10 09:07:44;;;;;;;4.50;3.33;;;;;;;-140.05;100.00;61859.38;4999649;28;20452;-64
2021/10/10 09:10:27;;;;;;;2.73;2.20;;;;;;;-140.05;100.00;61859.38;5000510;28;20442;-64
2021/10/10 09:13:12;;;;;;;2.83;2.07;;;;;;;-140.05;100.00;61859.38;4996381;28;20966;-65
2021/10/10 09:15:42;;;;;;;2.67;2.00;;;;;;;-140.05;100.00;61859.38;4998187;28;20468;-65
2021/10/10 09:18:09;;;;;;;3.47;1.60;;;;;;;-140.05;100.00;61859.38;5001334;28;20485;-64
2021/10/10 09:20:41;;;;;;;2.00;1.57;;;;;;;-140.05;100.00;61859.38;4995575;28;20503;-65
2021/10/10 09:23:29;;;;;;;3.07;2.00;;;;;;;-140.05;100.00;61859.38;4998345;28;20448;-66
2021/10/10 09:26:01;;;;;;;32.60;28.33;;;;;;;-140.05;100.00;61859.38;5001132;28;20948;-67
2021/10/10 09:28:33;;;;;;;17.10;12.83;;;;;;;-140.05;100.00;61859.38;5002339;28;20444;-66
2021/10/10 09:31:05;;;;;;;6.63;5.70;;;;;;;-140.05;100.00;61859.38;4999212;28;20445;-65
2021/10/10 09:33:39;;;;;;;1.60;1.23;;;;;;;-140.05;100.00;61859.38;4996875;28;20473;-66
2021/10/10 09:36:15;;;;;;;1.97;1.37;;;;;;;-140.05;100.00;61859.38;4994872;28;20517;-64
2021/10/10 09:38:54;;;;;;;1.77;1.43;;;;;;;-140.05;100.00;61859.38;4991186;28;20492;-66
2021/10/10 09:41:28;;;;;;;4.23;1.80;;;;;;;-140.05;100.00;61859.38;4994212;28;20456;-65
2021/10/10 09:46:42;;;;;;;3.70;1.70;;;;;;;-140.05;100.00;61859.38;4995435;28;21283;-65
2021/10/10 09:49:23;;;;;;;3.73;1.60;;;;;;;-140.05;100.00;61859.38;4998081;28;20460;-65
2021/10/10 09:51:52;;;;;;;2.17;1.50;;;;;;;-140.05;100.00;61859.38;5001882;28;20644;-68
2021/10/10 09:54:20;;;;;;;1.73;1.50;;;;;;;-140.05;100.00;61859.38;5011904;28;20448;-65
2021/10/10 09:57:07;;;;;;;1.60;1.50;;;;;;;-140.05;100.00;61859.38;5011025;28;20440;-62
2021/10/10 09:59:35;;;;;;;1.60;1.50;;;;;;;-140.05;100.00;61859.38;5005031;28;20918;-64
2021/10/10 10:02:03;;;;;;;3.00;1.80;;;;;;;-140.05;100.00;61859.38;5008509;28;20916;-67
2021/10/10 10:04:56;;;;;;;1.67;1.50;;;;;;;-140.05;100.00;61859.38;5002188;28;20437;-64
2021/10/10 10:07:23;;;;;;;59.63;43.27;;;;;;;-140.05;100.00;61859.38;5010215;28;20548;-67
2021/10/10 10:09:50;;;;;;;14.10;10.83;;;;;;;-140.05;100.00;61859.38;5011542;28;20441;-68
2021/10/10 10:12:19;;;;;;;2.80;1.80;;;;;;;-140.05;100.00;61859.38;5010963;28;20480;-66
2021/10/10 10:14:51;;;;;;;6.50;3.60;;;;;;;-140.05;100.00;61859.38;5011354;28;20752;-67
2021/10/10 10:17:23;;;;;;;1.93;1.60;;;;;;;-140.05;100.00;61859.38;5010549;28;20548;-67
2021/10/10 10:19:51;;;;;;;5.00;3.07;;;;;;;-140.05;100.00;61859.38;5007037;28;20831;-65
2021/10/10 10:22:21;;;;;;;5.67;3.47;;;;;;;-140.05;100.00;61859.38;4995121;28;20484;-65
2021/10/10 10:24:48;;;;;;;2.20;1.80;;;;;;;-140.05;100.00;61859.38;5003969;28;20448;-65
2021/10/10 10:27:16;;;;;;;2.50;1.30;;;;;;;-140.05;100.00;61859.38;5008497;28;20695;-66
2021/10/10 10:29:46;;;;;;;2.40;1.30;;;;;;;-140.05;100.00;61859.38;4994528;28;20826;-65
2021/10/10 10:32:15;;;;;;;2.47;1.10;;;;;;;-140.05;100.00;61859.38;4996728;28;20449;-66
2021/10/10 10:34:59;;;;;;;2.47;1.40;;;;;;;-140.05;100.00;61859.38;5001703;28;20448;-65
2021/10/10 10:37:44;;;;;;;1.63;1.10;;;;;;;-140.05;100.00;61859.38;5009478;28;20440;-64
2021/10/10 10:40:14;;;;;;;1.87;1.40;;;;;;;-140.05;100.00;61859.38;4994469;28;20617;-67
2021/10/10 10:42:44;;;;;;;1.83;1.13;;;;;;;-140.05;100.00;61859.38;5002679;28;20469;-70
2021/10/10 10:45:21;;;;;;;2.33;1.40;;;;;;;-140.05;100.00;61859.38;5011067;28;20444;-69
2021/10/10 10:48:13;;;;;;;8.90;7.97;;;;;;;-140.05;100.00;61859.38;5008860;28;20463;-71
2021/10/10 10:50:48;;;;;;;8.43;7.53;;;;;;;-140.05;100.00;61859.38;5005766;28;20438;-68
2021/10/10 10:53:22;;;;;;;2.57;1.87;;;;;;;-140.05;100.00;61859.38;5002787;28;20453;-66
2021/10/10 10:55:56;;;;;;;2.53;1.50;;;;;;;-140.05;100.00;61859.38;5009304;28;20441;-67
2021/10/10 10:58:22;;;;;;;4.03;1.30;;;;;;;-140.05;100.00;61859.38;5008287;28;21021;-66
2021/10/10 11:01:02;;;;;;;1.83;1.60;;;;;;;-140.05;100.00;61859.38;5002471;28;20445;-66
2021/10/10 11:03:30;;;;;;;2.87;2.20;;;;;;;-140.05;100.00;61859.38;5003339;28;20444;-66
2021/10/10 11:05:57;;;;;;;1.13;0.93;;;;;;;-140.05;100.00;61859.38;4996557;28;20441;-65
2021/10/10 11:08:30;;;;;;;1.80;1.00;;;;;;;-140.05;100.00;61859.38;5009467;28;20455;-67
2021/10/10 11:11:00;;;;;;;1.23;1.00;;;;;;;-140.05;100.00;61859.38;5008890;28;20473;-67
2021/10/10 11:13:29;;;;;;;1.80;1.20;;;;;;;-140.05;100.00;61859.38;5008971;28;20449;-66
2021/10/10 11:16:03;;;;;;;2.57;1.20;;;;;;;-140.05;100.00;61859.38;5008309;28;20451;-67
2021/10/10 11:18:31;;;;;;;1.37;1.10;;;;;;;-140.05;100.00;61859.38;5009423;28;20900;-66
2021/10/10 11:21:04;;;;;;;41.83;35.87;;;;;;;-140.05;100.00;61859.38;5008641;28;20437;-66
2021/10/10 11:23:32;;;;;;;32.50;27.40;;;;;;;-140.05;100.00;61859.38;5009626;28;20901;-71
2021/10/10 11:26:04;;;;;;;2.60;2.17;;;;;;;-140.05;100.00;61859.38;5010262;28;20476;-69